Terminal Aerodrome Forecast
Issued by NWS Blacksburg, VA

Home | Current Version | Previous Version | Text Only | Print | Product List | Glossary On
Versions: 1 2 3 4 5 6 7 8 9 10 11 12 13 14 15 16 17 18 19 20 21 22 23 24 25 26 27 28
000
FTUS41 KRNK 220531
TAFROA
TAF
KROA 220531Z 2206/2306 12007KT P6SM OVC035
     FM221000 09004KT P6SM -RA OVC025
     FM221400 09004KT 4SM -RA SCT004 OVC015
     FM221800 07003KT 6SM BR OVC015
     FM230200 12003KT 2SM BR OVC007=

USA.gov is the U.S. government's official web portal to all federal, state and local government web resources and services.